Time;durP1;ratioP1;P1;durP2;ratioP2;P2;SDS_P1;SDS_P2;PMS_P1;PMS_P2;Temp;Humidity;BMP_temperature;BMP_pressure;BME280_temperature;BME280_humidity;BME280_pressure;Samples;Min_cycle;Max_cycle;Signal;HPM_P1;HPM_P2
2021/05/28 00:02:11;;;;;;;13.98;7.20;;;10.20;99.90;;;;;;5121167;28;20435;-63
2021/05/28 00:04:42;;;;;;;13.48;6.43;;;10.20;99.90;;;;;;5121406;28;20027;-63
2021/05/28 00:07:09;;;;;;;9.90;6.20;;;10.20;99.90;;;;;;5121059;28;20015;-62
2021/05/28 00:09:39;;;;;;;10.13;4.88;;;10.20;99.90;;;;;;5103379;28;20031;-63
2021/05/28 00:12:07;;;;;;;9.18;4.40;;;10.20;99.90;;;;;;5120713;28;20145;-63
2021/05/28 00:14:35;;;;;;;8.82;4.78;;;10.20;99.90;;;;;;5120550;28;20047;-63
2021/05/28 00:17:02;;;;;;;9.25;5.10;;;10.20;99.90;;;;;;5119726;28;20019;-63
2021/05/28 00:19:30;;;;;;;11.73;6.30;;;10.20;99.90;;;;;;5119669;28;20411;-63
2021/05/28 00:21:58;;;;;;;9.80;6.03;;;10.10;99.90;;;;;;5101569;28;20034;-62
2021/05/28 00:24:25;;;;;;;13.88;5.93;;;10.10;99.90;;;;;;5101488;28;20120;-63
2021/05/28 00:26:53;;;;;;;10.25;6.35;;;10.10;99.90;;;;;;5119447;28;20081;-63
2021/05/28 00:29:21;;;;;;;14.90;6.22;;;10.10;99.90;;;;;;5120010;28;20012;-63
2021/05/28 00:31:48;;;;;;;11.68;6.25;;;10.10;99.90;;;;;;5120129;28;20107;-63
2021/05/28 00:34:16;;;;;;;12.30;5.80;;;10.10;99.90;;;;;;5119304;28;20016;-63
2021/05/28 00:36:44;;;;;;;11.15;5.70;;;10.10;99.90;;;;;;5119606;28;20357;-63
2021/05/28 00:39:11;;;;;;;12.80;6.00;;;10.10;99.90;;;;;;5120746;28;20030;-63
2021/05/28 00:41:39;;;;;;;11.65;5.75;;;10.10;99.90;;;;;;5120200;28;20471;-63
2021/05/28 00:44:06;;;;;;;8.75;5.63;;;10.10;99.90;;;;;;5119964;28;20023;-62
2021/05/28 00:46:34;;;;;;;10.93;5.00;;;10.00;99.90;;;;;;5119980;28;20073;-63
2021/05/28 00:49:02;;;;;;;11.75;5.15;;;10.00;99.90;;;;;;5119860;28;20028;-62
2021/05/28 00:51:30;;;;;;;9.98;4.90;;;10.00;99.90;;;;;;5119656;28;20042;-62
2021/05/28 00:53:59;;;;;;;11.10;5.10;;;10.00;99.90;;;;;;5119991;28;20099;-63
2021/05/28 00:56:27;;;;;;;11.52;5.07;;;10.00;99.90;;;;;;5097977;28;20356;-63
2021/05/28 00:59:00;;;;;;;11.50;5.47;;;10.00;99.90;;;;;;5114441;28;20165;-62
2021/05/28 01:01:28;;;;;;;11.98;5.68;;;10.00;99.90;;;;;;5098603;28;20024;-63
2021/05/28 01:03:56;;;;;;;9.73;5.05;;;10.00;99.90;;;;;;5098441;28;20042;-63
2021/05/28 01:06:24;;;;;;;10.82;5.05;;;10.00;99.90;;;;;;5097274;28;20047;-62
2021/05/28 01:08:52;;;;;;;15.18;5.10;;;10.00;99.90;;;;;;5098304;28;20012;-63
2021/05/28 01:11:20;;;;;;;8.95;5.32;;;10.00;99.90;;;;;;5098208;28;20039;-62
2021/05/28 01:13:47;;;;;;;10.48;4.82;;;10.00;99.90;;;;;;5098774;28;20311;-63
2021/05/28 01:16:16;;;;;;;14.95;6.95;;;10.00;99.90;;;;;;5098305;28;20019;-63
2021/05/28 01:18:43;;;;;;;11.10;5.10;;;10.00;99.90;;;;;;5099252;28;20031;-63
2021/05/28 01:21:11;;;;;;;7.65;4.75;;;10.00;99.90;;;;;;5098825;28;20479;-63
2021/05/28 01:23:38;;;;;;;18.02;5.22;;;10.00;99.90;;;;;;5097954;28;20326;-63
2021/05/28 01:26:08;;;;;;;8.25;5.05;;;10.00;99.90;;;;;;5098395;28;20023;-63
2021/05/28 01:28:36;;;;;;;7.65;5.15;;;10.00;99.90;;;;;;5099307;28;20040;-63
2021/05/28 01:31:03;;;;;;;7.25;4.50;;;10.00;99.90;;;;;;5098817;28;20032;-63
2021/05/28 01:33:31;;;;;;;14.93;6.13;;;10.00;99.90;;;;;;5099353;28;20141;-63
2021/05/28 01:35:59;;;;;;;17.30;5.32;;;10.00;99.90;;;;;;5097856;28;20028;-62
2021/05/28 01:38:27;;;;;;;10.30;5.40;;;10.00;99.90;;;;;;5097158;28;20028;-62
2021/05/28 01:40:56;;;;;;;13.93;5.47;;;9.90;99.90;;;;;;5097614;28;20075;-62
2021/05/28 01:43:24;;;;;;;9.98;4.90;;;10.00;99.90;;;;;;5097572;28;20025;-63
2021/05/28 01:45:52;;;;;;;16.17;4.43;;;10.00;99.90;;;;;;5096521;28;20027;-63
2021/05/28 01:48:20;;;;;;;9.75;5.68;;;9.90;99.90;;;;;;5097759;28;20073;-62
2021/05/28 01:50:47;;;;;;;15.27;4.60;;;9.90;99.90;;;;;;5096993;28;20031;-63
2021/05/28 01:53:20;;;;;;;9.90;4.32;;;9.90;99.90;;;;;;5097423;28;20331;-63
2021/05/28 01:55:48;;;;;;;13.18;5.10;;;9.90;99.90;;;;;;5104221;28;20462;-63
2021/05/28 01:58:19;;;;;;;8.52;4.57;;;9.90;99.90;;;;;;5099858;28;20479;-63
2021/05/28 02:00:48;;;;;;;10.95;4.90;;;9.90;99.90;;;;;;5118118;28;20027;-62
2021/05/28 02:03:17;;;;;;;13.73;5.22;;;9.90;99.90;;;;;;5118006;28;20072;-62
2021/05/28 02:05:46;;;;;;;12.35;5.35;;;9.90;99.90;;;;;;5118502;28;20335;-62
2021/05/28 02:08:15;;;;;;;12.25;5.38;;;9.90;99.90;;;;;;5118862;28;20019;-63
2021/05/28 02:10:43;;;;;;;10.02;5.18;;;9.90;99.90;;;;;;5100358;28;20394;-62
2021/05/28 02:13:11;;;;;;;10.38;5.95;;;9.90;99.90;;;;;;5118594;28;20026;-63
2021/05/28 02:15:39;;;;;;;13.02;5.90;;;9.90;99.90;;;;;;5100304;28;20106;-62
2021/05/28 02:18:06;;;;;;;8.05;5.32;;;9.90;99.90;;;;;;5118290;28;20020;-62
2021/05/28 02:20:34;;;;;;;11.80;5.50;;;9.90;99.90;;;;;;5099787;28;20023;-63
2021/05/28 02:23:02;;;;;;;12.98;6.72;;;9.90;99.90;;;;;;5117858;28;20018;-63
2021/05/28 02:25:30;;;;;;;9.80;5.20;;;9.90;99.90;;;;;;5117242;28;20020;-63
2021/05/28 02:27:57;;;;;;;9.70;5.53;;;9.90;99.90;;;;;;5082440;28;20034;-63
2021/05/28 02:30:26;;;;;;;15.43;6.20;;;9.90;99.90;;;;;;5099131;28;20027;-62
2021/05/28 02:32:54;;;;;;;11.48;5.78;;;9.90;99.90;;;;;;5117952;28;20019;-63
2021/05/28 02:35:21;;;;;;;10.85;5.90;;;9.90;99.90;;;;;;5117027;28;20374;-63
2021/05/28 02:37:49;;;;;;;14.52;5.85;;;9.90;99.90;;;;;;5117071;28;20419;-63
2021/05/28 02:40:18;;;;;;;10.57;5.20;;;9.90;99.90;;;;;;5098921;28;20050;-63
2021/05/28 02:42:45;;;;;;;16.45;5.10;;;9.90;99.90;;;;;;5118381;28;20020;-62
2021/05/28 02:45:13;;;;;;;9.50;5.00;;;9.90;99.90;;;;;;5117961;28;20349;-63
2021/05/28 02:47:41;;;;;;;18.38;4.18;;;9.90;99.90;;;;;;5118511;28;20023;-63
2021/05/28 02:50:09;;;;;;;11.80;4.28;;;9.90;99.90;;;;;;5117708;28;20050;-63
2021/05/28 02:52:37;;;;;;;14.23;4.70;;;9.90;99.90;;;;;;5083376;28;20354;-63
2021/05/28 02:55:06;;;;;;;7.90;4.15;;;9.90;99.90;;;;;;5117530;28;20051;-63
2021/05/28 02:57:36;;;;;;;6.88;3.83;;;9.90;99.90;;;;;;5117872;28;20087;-63
2021/05/28 03:00:06;;;;;;;11.50;4.57;;;9.90;99.90;;;;;;5117747;28;20049;-62
2021/05/28 03:02:34;;;;;;;8.90;3.90;;;9.90;99.90;;;;;;5117293;28;20426;-62
2021/05/28 03:05:02;;;;;;;8.55;3.42;;;9.90;99.90;;;;;;5116821;28;20323;-63
2021/05/28 03:07:31;;;;;;;16.23;4.57;;;9.90;99.90;;;;;;5117076;28;20027;-62
2021/05/28 03:09:59;;;;;;;11.02;4.10;;;9.80;99.90;;;;;;5098779;28;20027;-62
2021/05/28 03:12:27;;;;;;;7.22;3.92;;;9.80;99.90;;;;;;5116922;28;20016;-63
2021/05/28 03:14:55;;;;;;;8.52;3.97;;;9.80;99.90;;;;;;5118284;28;20015;-63
2021/05/28 03:17:23;;;;;;;12.73;4.30;;;9.80;99.90;;;;;;5120789;28;20434;-62
2021/05/28 03:19:51;;;;;;;13.90;4.22;;;9.80;99.90;;;;;;5120723;28;20012;-63
2021/05/28 03:22:33;;;;;;;8.88;3.47;;;9.80;99.90;;;;;;5120744;28;20031;-62
2021/05/28 03:25:10;;;;;;;7.63;3.63;;;9.80;99.90;;;;;;5121296;28;20019;-62
2021/05/28 03:27:39;;;;;;;9.00;4.32;;;9.80;99.90;;;;;;5122193;28;20016;-63
2021/05/28 03:30:09;;;;;;;8.80;4.28;;;9.80;99.90;;;;;;5121419;28;20107;-62
2021/05/28 03:32:38;;;;;;;13.02;3.78;;;9.80;99.90;;;;;;5121444;28;20024;-63
2021/05/28 03:35:07;;;;;;;6.18;3.50;;;9.80;99.90;;;;;;5103426;28;20032;-63
2021/05/28 03:37:34;;;;;;;9.40;3.70;;;9.70;99.90;;;;;;5103263;28;20024;-63
2021/05/28 03:40:02;;;;;;;16.23;4.32;;;9.70;99.90;;;;;;5103919;28;20020;-62
2021/05/28 03:42:30;;;;;;;13.88;4.88;;;9.70;99.90;;;;;;5120976;28;20028;-62
2021/05/28 03:44:58;;;;;;;9.90;4.35;;;9.60;99.90;;;;;;5102201;28;20024;-62
2021/05/28 03:47:26;;;;;;;9.18;3.20;;;9.60;99.90;;;;;;5120530;28;20024;-63
2021/05/28 03:49:54;;;;;;;14.80;4.00;;;9.60;99.90;;;;;;5120793;28;20026;-63
2021/05/28 03:52:21;;;;;;;13.63;3.75;;;9.70;99.90;;;;;;5120149;28;20016;-63
2021/05/28 03:54:49;;;;;;;6.93;3.30;;;9.60;99.90;;;;;;5120189;28;20047;-63
2021/05/28 03:57:21;;;;;;;10.20;3.90;;;9.60;99.90;;;;;;5119850;28;20058;-63
2021/05/28 03:59:49;;;;;;;9.10;3.72;;;9.60;99.90;;;;;;5119753;28;20028;-63
2021/05/28 04:02:17;;;;;;;19.98;4.57;;;9.60;99.90;;;;;;5120584;28;20400;-62
2021/05/28 04:04:44;;;;;;;12.15;3.60;;;9.50;99.90;;;;;;5120463;28;20020;-61
2021/05/28 04:07:12;;;;;;;13.63;3.60;;;9.50;99.90;;;;;;5121092;28;20023;-61
2021/05/28 04:09:40;;;;;;;10.45;3.15;;;9.40;99.90;;;;;;5120766;28;20023;-63
2021/05/28 04:12:08;;;;;;;12.20;4.55;;;9.40;99.90;;;;;;5121226;28;20045;-63
2021/05/28 04:14:36;;;;;;;11.30;3.83;;;9.40;99.90;;;;;;5120752;28;20012;-63
2021/05/28 04:17:04;;;;;;;7.80;3.25;;;9.30;99.90;;;;;;5121100;28;20016;-63
2021/05/28 04:19:32;;;;;;;10.85;3.85;;;9.30;99.90;;;;;;5120525;28;20098;-63
2021/05/28 04:22:00;;;;;;;9.48;3.80;;;9.20;99.90;;;;;;5120359;28;20028;-63
2021/05/28 04:24:27;;;;;;;7.22;3.67;;;9.20;99.90;;;;;;5119847;28;20026;-63
2021/05/28 04:26:55;;;;;;;13.55;3.75;;;9.20;99.90;;;;;;5118958;28;20425;-63
2021/05/28 04:29:23;;;;;;;9.15;4.10;;;9.10;99.90;;;;;;5119386;28;20024;-63
2021/05/28 04:31:51;;;;;;;10.88;3.80;;;9.10;99.90;;;;;;5120042;28;20016;-63
2021/05/28 04:34:19;;;;;;;12.05;4.13;;;9.00;99.90;;;;;;5119390;28;20023;-63
2021/05/28 04:36:48;;;;;;;16.33;4.07;;;9.00;99.90;;;;;;5119370;28;20028;-63
2021/05/28 04:39:16;;;;;;;8.90;3.88;;;9.00;99.90;;;;;;5084570;28;20038;-63
2021/05/28 04:41:44;;;;;;;7.35;3.75;;;9.00;99.90;;;;;;5119192;28;20110;-63
2021/05/28 04:44:13;;;;;;;10.68;4.10;;;9.00;99.90;;;;;;5119298;28;20016;-63
2021/05/28 04:46:43;;;;;;;9.07;3.60;;;9.00;99.90;;;;;;5119844;28;20016;-62
2021/05/28 04:49:11;;;;;;;8.73;4.05;;;9.10;99.90;;;;;;5120064;28;20022;-63
2021/05/28 04:51:38;;;;;;;9.02;4.00;;;9.10;99.90;;;;;;5101872;28;20036;-63
2021/05/28 04:54:07;;;;;;;10.43;3.75;;;9.10;99.90;;;;;;5101874;28;20024;-63
2021/05/28 04:56:34;;;;;;;8.20;3.53;;;9.20;99.90;;;;;;5119693;28;20058;-63
2021/05/28 04:59:02;;;;;;;12.32;4.85;;;9.20;99.90;;;;;;5101957;28;20327;-63
2021/05/28 05:01:29;;;;;;;14.05;4.10;;;9.20;99.90;;;;;;5119662;28;20118;-63
2021/05/28 05:03:57;;;;;;;9.32;4.25;;;9.30;99.90;;;;;;5119661;28;20016;-63
2021/05/28 05:06:25;;;;;;;13.93;4.55;;;9.30;99.90;;;;;;5118792;28;20319;-64
2021/05/28 05:08:53;;;;;;;13.13;4.50;;;9.40;99.90;;;;;;5118720;28;20391;-64
2021/05/28 05:11:20;;;;;;;8.98;3.90;;;9.40;99.90;;;;;;5118926;28;20327;-64
2021/05/28 05:13:49;;;;;;;7.00;4.47;;;9.50;99.90;;;;;;5100585;28;20106;-63
2021/05/28 05:16:16;;;;;;;14.43;5.40;;;9.50;99.90;;;;;;5118505;28;20365;-63
2021/05/28 05:18:45;;;;;;;9.80;3.72;;;9.50;99.90;;;;;;5118410;28;20027;-67
2021/05/28 05:21:12;;;;;;;10.57;4.03;;;9.70;99.90;;;;;;5118334;28;20099;-66
2021/05/28 05:23:40;;;;;;;7.93;3.28;;;9.80;99.90;;;;;;5118379;28;20376;-66
2021/05/28 05:26:12;;;;;;;9.15;4.50;;;9.90;99.90;;;;;;5118980;28;20072;-68
2021/05/28 05:28:40;;;;;;;9.15;3.95;;;10.00;99.90;;;;;;5119213;28;20054;-68
2021/05/28 05:31:08;;;;;;;8.00;4.68;;;10.10;99.90;;;;;;5119202;28;20024;-67
2021/05/28 05:33:36;;;;;;;9.13;4.50;;;10.20;99.90;;;;;;5119186;28;20398;-67
2021/05/28 05:36:05;;;;;;;9.45;4.55;;;10.20;99.90;;;;;;5119440;28;20027;-65
2021/05/28 05:38:33;;;;;;;13.85;4.57;;;10.20;99.90;;;;;;5118625;28;20028;-66
2021/05/28 05:41:00;;;;;;;12.40;3.97;;;10.30;99.90;;;;;;5119329;28;20027;-67
2021/05/28 05:43:29;;;;;;;13.82;4.65;;;10.40;99.90;;;;;;5118964;28;20491;-66
2021/05/28 05:45:57;;;;;;;10.45;4.13;;;10.50;99.90;;;;;;5118693;28;20126;-67
2021/05/28 05:48:25;;;;;;;6.85;4.38;;;10.60;99.90;;;;;;5117981;28;20024;-67
2021/05/28 05:50:53;;;;;;;6.93;3.95;;;10.70;99.90;;;;;;5117810;28;20106;-68
2021/05/28 05:53:21;;;;;;;13.13;4.50;;;10.70;99.90;;;;;;5118091;28;20277;-69
2021/05/28 05:55:49;;;;;;;11.95;4.47;;;10.70;99.90;;;;;;5096121;28;20516;-67
2021/05/28 05:58:17;;;;;;;8.15;4.30;;;10.70;99.90;;;;;;5097486;28;20051;-67
2021/05/28 06:00:45;;;;;;;11.75;4.70;;;10.70;99.90;;;;;;5097745;28;20027;-67
2021/05/28 06:03:13;;;;;;;10.80;4.28;;;10.70;99.90;;;;;;5113024;28;20073;-69
2021/05/28 06:05:40;;;;;;;10.60;3.60;;;10.80;99.90;;;;;;5096079;28;20320;-69
2021/05/28 06:08:08;;;;;;;7.95;3.78;;;10.90;99.90;;;;;;5097282;28;20023;-68
2021/05/28 06:10:35;;;;;;;7.05;3.63;;;11.00;99.90;;;;;;5096809;28;20024;-64
2021/05/28 06:13:08;;;;;;;5.93;3.10;;;11.10;99.90;;;;;;5098290;28;20420;-64
2021/05/28 06:15:36;;;;;;;8.48;3.42;;;11.10;99.90;;;;;;5097903;28;20023;-66
2021/05/28 06:20:51;;;;;;;7.05;3.33;;;11.20;99.90;;;;;;5086477;28;20040;-63
2021/05/28 06:23:18;;;;;;;10.95;3.80;;;11.10;99.90;;;;;;5098039;28;20416;-65
2021/05/28 06:25:47;;;;;;;8.40;3.70;;;11.10;99.90;;;;;;5097646;28;20024;-64
2021/05/28 06:28:15;;;;;;;10.98;3.67;;;11.00;99.90;;;;;;5096745;28;20024;-64
2021/05/28 06:30:43;;;;;;;7.75;3.33;;;11.00;99.90;;;;;;5097405;28;20031;-64
2021/05/28 06:33:11;;;;;;;6.68;3.70;;;10.90;99.90;;;;;;5096972;28;20110;-64
2021/05/28 06:35:39;;;;;;;8.40;3.00;;;11.00;99.90;;;;;;5097306;28;20042;-65
2021/05/28 06:38:09;;;;;;;7.35;3.35;;;11.00;99.90;;;;;;5095702;28;20020;-63
2021/05/28 06:40:38;;;;;;;9.18;3.22;;;11.00;99.90;;;;;;5095365;28;20028;-64
2021/05/28 06:43:07;;;;;;;9.20;3.33;;;10.90;99.90;;;;;;5096851;28;20024;-64
2021/05/28 06:45:36;;;;;;;5.82;2.88;;;10.90;99.90;;;;;;5096954;28;20092;-64
2021/05/28 06:48:05;;;;;;;11.68;3.40;;;10.90;99.90;;;;;;5096778;28;20069;-64
2021/05/28 06:50:33;;;;;;;8.68;3.08;;;10.90;99.90;;;;;;5098062;28;20020;-64
2021/05/28 06:53:01;;;;;;;12.20;3.53;;;10.80;99.90;;;;;;5097599;28;20028;-65
2021/05/28 06:55:29;;;;;;;8.15;2.90;;;10.80;99.90;;;;;;5100935;28;20047;-64
2021/05/28 06:57:56;;;;;;;6.07;2.60;;;10.70;99.90;;;;;;5117902;28;20019;-63
2021/05/28 07:00:24;;;;;;;6.55;3.17;;;10.80;99.90;;;;;;5099969;28;20300;-63
2021/05/28 07:02:55;;;;;;;7.65;3.55;;;10.80;99.90;;;;;;5100423;28;20403;-63
2021/05/28 07:05:27;;;;;;;6.45;3.05;;;10.80;99.90;;;;;;5118405;28;20024;-63
2021/05/28 07:07:56;;;;;;;4.40;2.15;;;10.90;99.90;;;;;;5117170;28;20051;-63
2021/05/28 07:10:24;;;;;;;4.95;2.90;;;11.00;99.90;;;;;;5098788;28;20370;-64
2021/05/28 07:12:52;;;;;;;6.15;2.60;;;11.00;99.90;;;;;;5116896;28;20087;-65
2021/05/28 07:15:19;;;;;;;8.85;2.90;;;11.10;99.90;;;;;;5098906;28;20363;-65
2021/05/28 07:17:47;;;;;;;6.45;2.95;;;11.20;99.90;;;;;;5116776;28;20024;-65
2021/05/28 07:20:16;;;;;;;7.30;2.95;;;11.20;99.90;;;;;;5116866;28;20032;-63
2021/05/28 07:22:44;;;;;;;8.40;3.20;;;11.30;99.90;;;;;;5098533;28;20047;-63
2021/05/28 07:25:12;;;;;;;6.28;3.20;;;11.40;99.90;;;;;;5116504;28;20361;-63
2021/05/28 07:27:40;;;;;;;8.65;3.47;;;11.40;99.90;;;;;;5116556;28;20035;-63
2021/05/28 07:30:08;;;;;;;8.50;3.33;;;11.60;99.90;;;;;;5118543;28;20331;-63
2021/05/28 07:32:37;;;;;;;9.45;3.33;;;11.60;99.90;;;;;;5118115;28;20019;-63
2021/05/28 07:35:06;;;;;;;8.52;4.05;;;11.80;99.90;;;;;;5117532;28;20027;-63
2021/05/28 07:37:34;;;;;;;5.22;3.25;;;11.80;99.90;;;;;;5117441;28;20027;-63
2021/05/28 07:40:02;;;;;;;7.63;3.08;;;11.90;99.90;;;;;;5117868;28;20280;-63
2021/05/28 07:42:30;;;;;;;13.35;4.10;;;12.00;99.90;;;;;;5117337;28;20336;-63
2021/05/28 07:44:58;;;;;;;6.75;3.83;;;12.10;99.90;;;;;;5117843;28;20024;-64
2021/05/28 07:47:26;;;;;;;8.18;3.72;;;12.10;99.90;;;;;;5117152;28;20020;-64
2021/05/28 07:49:54;;;;;;;6.18;3.00;;;12.20;99.90;;;;;;5116949;28;20030;-63
2021/05/28 07:52:22;;;;;;;14.80;3.28;;;12.30;99.90;;;;;;5116334;28;20068;-63
2021/05/28 07:54:50;;;;;;;7.43;3.60;;;12.30;99.90;;;;;;5116247;28;20034;-63
2021/05/28 07:57:18;;;;;;;11.05;3.40;;;12.40;99.90;;;;;;5116025;28;20044;-63
2021/05/28 07:59:47;;;;;;;6.78;3.72;;;12.50;99.90;;;;;;5116933;28;20022;-63
2021/05/28 08:02:18;;;;;;;7.90;3.60;;;12.70;99.90;;;;;;5119662;28;20028;-63
2021/05/28 08:04:46;;;;;;;10.85;3.90;;;12.80;99.90;;;;;;5120122;28;20051;-63
2021/05/28 08:07:14;;;;;;;8.40;3.28;;;12.80;99.90;;;;;;5102626;28;20043;-63
2021/05/28 08:09:42;;;;;;;10.60;3.20;;;12.80;99.90;;;;;;5120904;28;20083;-63
2021/05/28 08:12:10;;;;;;;7.20;3.60;;;12.80;99.90;;;;;;5120783;28;20443;-64
2021/05/28 08:14:37;;;;;;;6.82;3.58;;;12.80;99.90;;;;;;5121248;28;20024;-63
2021/05/28 08:17:05;;;;;;;8.77;4.13;;;12.80;99.90;;;;;;5120631;28;20442;-66
2021/05/28 08:19:33;;;;;;;8.60;3.50;;;12.90;99.90;;;;;;5120907;28;20456;-63
2021/05/28 08:22:01;;;;;;;9.52;3.95;;;13.10;99.90;;;;;;5120435;28;20019;-64
2021/05/28 08:24:29;;;;;;;7.80;3.30;;;13.10;99.90;;;;;;5121051;28;20027;-64
2021/05/28 08:26:57;;;;;;;5.70;2.80;;;13.20;99.90;;;;;;5120572;28;20099;-64
2021/05/28 08:29:25;;;;;;;7.60;3.22;;;13.10;99.90;;;;;;5119758;28;20320;-64
2021/05/28 08:31:53;;;;;;;5.72;3.28;;;13.10;99.90;;;;;;5120144;28;20020;-64
2021/05/28 08:34:21;;;;;;;6.07;3.80;;;13.10;99.90;;;;;;5119298;28;20411;-64
2021/05/28 08:36:49;;;;;;;11.32;4.40;;;13.10;99.90;;;;;;5119172;28;20028;-63
2021/05/28 08:39:16;;;;;;;8.57;4.18;;;13.10;99.90;;;;;;5101343;28;20023;-65
2021/05/28 08:41:44;;;;;;;9.88;4.40;;;13.00;99.90;;;;;;5119165;28;20068;-65
2021/05/28 08:44:18;;;;;;;8.63;4.25;;;13.00;99.90;;;;;;5119461;28;20047;-65
2021/05/28 08:46:48;;;;;;;5.60;3.78;;;13.00;99.90;;;;;;5119010;28;20019;-64
2021/05/28 08:49:17;;;;;;;7.72;3.70;;;13.00;99.90;;;;;;5118992;28;20084;-64
2021/05/28 08:51:45;;;;;;;9.38;4.43;;;13.00;99.90;;;;;;5119543;28;20419;-64
2021/05/28 08:54:13;;;;;;;6.60;3.78;;;13.00;99.90;;;;;;5120321;28;20099;-65
2021/05/28 08:56:41;;;;;;;8.30;4.15;;;13.00;99.90;;;;;;5119591;28;20107;-65
2021/05/28 08:59:09;;;;;;;14.45;5.00;;;13.00;99.90;;;;;;5101941;28;20028;-65
2021/05/28 09:01:37;;;;;;;6.63;4.20;;;13.10;99.90;;;;;;5102442;28;20023;-65
2021/05/28 09:04:06;;;;;;;35.65;5.68;;;13.20;99.90;;;;;;5119991;28;20072;-65
2021/05/28 09:06:46;;;;;;;13.85;4.18;;;13.30;99.90;;;;;;5119667;28;20088;-65
2021/05/28 09:09:15;;;;;;;60.28;10.20;;;13.40;99.90;;;;;;5119608;28;20053;-65
2021/05/28 09:12:09;;;;;;;19.63;4.72;;;13.50;99.90;;;;;;5118693;28;20035;-65
2021/05/28 09:14:46;;;;;;;15.63;4.97;;;13.50;99.90;;;;;;5118726;28;20027;-65
2021/05/28 09:17:13;;;;;;;8.43;4.37;;;13.50;99.90;;;;;;5118601;28;20051;-65
2021/05/28 09:19:52;;;;;;;8.48;4.35;;;13.50;99.90;;;;;;5100406;28;20277;-64
2021/05/28 09:22:21;;;;;;;8.20;4.20;;;13.60;99.90;;;;;;5118786;28;20035;-64
2021/05/28 09:24:48;;;;;;;7.97;4.20;;;13.60;99.90;;;;;;5118241;28;20035;-64
2021/05/28 09:27:23;;;;;;;9.50;3.65;;;13.70;99.90;;;;;;5118447;28;20368;-65
2021/05/28 09:30:12;;;;;;;12.63;4.40;;;13.70;99.90;;;;;;5118125;28;20024;-64
2021/05/28 09:32:46;;;;;;;7.55;4.10;;;13.70;99.90;;;;;;5118666;28;20024;-63
2021/05/28 09:35:17;;;;;;;5.32;3.53;;;13.80;99.90;;;;;;5119093;28;20019;-64
2021/05/28 09:37:51;;;;;;;7.32;3.28;;;13.90;99.90;;;;;;5118797;28;20327;-65
2021/05/28 09:40:23;;;;;;;7.05;3.20;;;13.90;99.90;;;;;;5118913;28;20063;-65
2021/05/28 09:42:57;;;;;;;5.60;3.85;;;14.00;99.90;;;;;;5119060;28;20026;-65
2021/05/28 09:45:31;;;;;;;5.20;3.00;;;14.10;99.90;;;;;;5118808;28;20024;-64
2021/05/28 09:48:00;;;;;;;6.13;3.47;;;14.20;99.90;;;;;;5118929;28;20016;-63
2021/05/28 09:50:33;;;;;;;4.72;3.00;;;14.30;99.90;;;;;;5118818;28;20090;-63
2021/05/28 09:53:05;;;;;;;6.32;3.40;;;14.30;99.90;;;;;;5118332;28;20053;-65
2021/05/28 09:55:36;;;;;;;5.78;3.17;;;14.40;99.90;;;;;;5117816;28;20035;-65
2021/05/28 09:58:04;;;;;;;7.65;3.55;;;14.40;99.90;;;;;;5100196;28;20020;-63
2021/05/28 10:00:34;;;;;;;7.07;2.67;;;14.40;99.90;;;;;;5118198;28;20020;-64
2021/05/28 10:03:19;;;;;;;4.47;2.65;;;14.50;99.90;;;;;;5117900;28;20024;-64
2021/05/28 10:05:54;;;;;;;5.60;3.10;;;14.60;99.90;;;;;;5117512;28;20023;-63
2021/05/28 10:08:23;;;;;;;5.28;3.42;;;14.70;99.90;;;;;;5117645;28;20037;-63
2021/05/28 10:10:52;;;;;;;4.78;2.80;;;14.70;99.90;;;;;;5117509;28;20106;-62
2021/05/28 10:13:22;;;;;;;5.95;3.00;;;14.80;99.90;;;;;;5117650;28;20027;-64
2021/05/28 10:15:52;;;;;;;8.60;3.10;;;14.90;99.90;;;;;;5118126;28;20031;-63
2021/05/28 10:18:22;;;;;;;5.60;3.60;;;15.10;99.90;;;;;;5118329;28;20020;-62
2021/05/28 10:20:51;;;;;;;6.88;3.20;;;15.20;99.90;;;;;;5117960;28;20034;-62
2021/05/28 10:23:20;;;;;;;11.40;6.07;;;15.40;99.90;;;;;;5101261;28;20023;-64
2021/05/28 10:25:53;;;;;;;6.28;3.55;;;15.60;99.90;;;;;;5118108;28;20031;-64
2021/05/28 10:28:30;;;;;;;4.05;2.60;;;15.80;99.90;;;;;;5117972;28;20412;-64
2021/05/28 10:30:58;;;;;;;4.85;2.88;;;16.00;99.90;;;;;;5118438;28;20311;-64
2021/05/28 10:33:30;;;;;;;4.95;2.08;;;16.10;99.90;;;;;;5117968;28;20327;-63
2021/05/28 10:36:03;;;;;;;4.32;1.90;;;16.20;99.90;;;;;;5117413;28;20319;-64
2021/05/28 10:38:52;;;;;;;4.72;1.50;;;16.30;99.70;;;;;;5116985;28;20179;-64
2021/05/28 10:41:22;;;;;;;4.55;1.50;;;16.30;97.70;;;;;;5116893;28;20042;-64
2021/05/28 10:43:50;;;;;;;3.35;1.70;;;16.30;97.00;;;;;;5117660;28;20027;-65
2021/05/28 10:46:18;;;;;;;6.00;1.60;;;16.30;96.60;;;;;;5116926;28;20023;-64
2021/05/28 10:48:46;;;;;;;4.50;1.95;;;16.50;97.50;;;;;;5116955;28;20100;-65
2021/05/28 10:51:22;;;;;;;4.35;1.67;;;16.80;97.80;;;;;;5117278;28;20020;-64
2021/05/28 10:53:54;;;;;;;2.78;1.58;;;17.10;96.00;;;;;;5117455;28;20097;-64
2021/05/28 10:56:44;;;;;;;3.40;1.85;;;17.40;95.90;;;;;;5117908;28;20054;-64
2021/05/28 10:59:16;;;;;;;3.00;1.77;;;17.50;96.70;;;;;;5118371;28;20348;-63
2021/05/28 11:01:58;;;;;;;4.38;1.60;;;17.70;95.50;;;;;;5118109;28;20024;-64
2021/05/28 11:04:31;;;;;;;2.80;1.92;;;17.70;95.10;;;;;;5117651;28;20042;-64
2021/05/28 11:07:08;;;;;;;2.70;1.80;;;17.70;93.70;;;;;;5117581;28;20027;-64
2021/05/28 11:09:52;;;;;;;3.40;2.10;;;17.80;94.80;;;;;;5099640;28;20435;-65
2021/05/28 11:12:26;;;;;;;6.10;1.88;;;17.80;92.30;;;;;;5117629;28;20035;-64
2021/05/28 11:15:13;;;;;;;3.88;2.13;;;17.80;92.90;;;;;;5117365;28;20024;-64
2021/05/28 11:17:59;;;;;;;5.80;2.40;;;18.00;92.50;;;;;;5116945;28;20028;-64
2021/05/28 11:20:38;;;;;;;5.32;3.25;;;18.10;91.50;;;;;;5116653;28;20023;-64
2021/05/28 11:23:24;;;;;;;6.07;2.70;;;18.00;92.10;;;;;;5116962;28;20097;-64
2021/05/28 11:25:55;;;;;;;6.70;2.45;;;17.80;93.50;;;;;;5117240;28;20426;-64
2021/05/28 11:28:24;;;;;;;6.63;2.65;;;17.60;93.00;;;;;;5117048;28;20034;-64
2021/05/28 11:31:00;;;;;;;4.25;2.30;;;17.60;92.50;;;;;;5116850;28;20032;-64
2021/05/28 11:33:46;;;;;;;5.85;1.80;;;17.40;91.20;;;;;;5115127;28;20041;-64
2021/05/28 11:36:25;;;;;;;;;;;17.40;92.70;;;;;;5119418;28;20024;-64
2021/05/28 11:38:58;;;;;;;2.90;2.20;;;17.60;92.60;;;;;;5121988;28;20292;-64
2021/05/28 11:41:52;;;;;;;4.93;2.25;;;17.60;92.40;;;;;;5121377;28;20020;-64
2021/05/28 11:44:22;;;;;;;6.70;2.33;;;17.70;92.00;;;;;;5121608;28;20080;-64
2021/05/28 11:46:51;;;;;;;5.70;2.67;;;17.80;91.80;;;;;;5121612;28;20106;-66
2021/05/28 11:49:21;;;;;;;4.43;2.58;;;17.70;91.30;;;;;;5121077;28;20023;-64
2021/05/28 11:52:02;;;;;;;7.22;2.80;;;17.60;91.50;;;;;;5121207;28;20023;-64
2021/05/28 11:54:31;;;;;;;6.13;2.75;;;17.50;91.80;;;;;;5120907;28;20118;-64
2021/05/28 11:57:15;;;;;;;4.72;2.53;;;17.50;92.40;;;;;;5119918;28;20052;-64
2021/05/28 11:59:57;;;;;;;4.88;2.50;;;17.60;90.70;;;;;;5119968;28;20031;-65
2021/05/28 12:02:36;;;;;;;5.25;2.05;;;17.60;91.80;;;;;;5119951;28;20034;-64
2021/05/28 12:05:16;;;;;;;6.10;2.70;;;17.50;91.50;;;;;;5120351;28;20028;-64
2021/05/28 12:07:44;;;;;;;6.15;2.35;;;17.40;91.70;;;;;;5119810;28;20027;-64
2021/05/28 12:10:14;;;;;;;3.20;2.00;;;17.40;90.20;;;;;;5119853;28;20533;-64
2021/05/28 12:13:00;;;;;;;3.58;2.05;;;17.40;88.80;;;;;;5120350;28;20068;-64
2021/05/28 12:15:43;;;;;;;4.95;2.15;;;17.50;89.80;;;;;;5119788;28;20026;-64
2021/05/28 12:18:22;;;;;;;2.88;1.80;;;17.80;90.80;;;;;;5102645;28;20024;-64
2021/05/28 12:20:55;;;;;;;4.80;2.67;;;18.00;90.20;;;;;;5120394;28;20046;-63
2021/05/28 12:23:26;;;;;;;3.78;2.13;;;18.10;87.50;;;;;;5120657;28;20027;-64
2021/05/28 12:26:11;;;;;;;5.72;2.63;;;18.20;87.00;;;;;;5120458;28;20020;-63
2021/05/28 12:28:48;;;;;;;6.03;2.13;;;18.40;87.50;;;;;;5120602;28;20023;-63
2021/05/28 12:31:17;;;;;;;3.65;2.30;;;18.60;85.40;;;;;;5120410;28;20061;-63
2021/05/28 12:33:55;;;;;;;4.10;1.92;;;18.90;87.00;;;;;;5120104;28;20326;-63
2021/05/28 12:36:33;;;;;;;4.45;2.30;;;19.40;86.40;;;;;;5119795;28;20023;-65
2021/05/28 12:39:08;;;;;;;3.45;2.22;;;20.30;79.00;;;;;;5119985;28;20023;-65
2021/05/28 12:41:38;;;;;;;6.63;2.55;;;20.60;78.60;;;;;;5101322;28;20019;-65
2021/05/28 12:44:06;;;;;;;9.43;2.60;;;21.10;78.20;;;;;;5119281;28;20034;-65
2021/05/28 12:46:36;;;;;;;5.95;2.80;;;21.60;74.10;;;;;;5118926;28;20023;-65
2021/05/28 12:49:14;;;;;;;2.95;2.10;;;22.10;71.40;;;;;;5119176;28;20031;-65
2021/05/28 12:51:50;;;;;;;3.55;1.95;;;22.30;69.90;;;;;;5119517;28;20027;-65
2021/05/28 12:54:22;;;;;;;4.22;2.28;;;22.30;69.00;;;;;;5119408;28;20023;-65
2021/05/28 12:56:55;;;;;;;4.38;2.35;;;22.60;67.30;;;;;;5118784;28;20060;-65
2021/05/28 12:59:31;;;;;;;3.92;1.88;;;23.10;63.30;;;;;;5119829;28;20075;-64
2021/05/28 13:02:21;;;;;;;5.10;2.90;;;23.30;66.10;;;;;;5120529;28;20415;-65
2021/05/28 13:04:56;;;;;;;3.30;2.40;;;23.70;65.30;;;;;;5101745;28;20026;-65